createdAt,value
2018-12-24T00:00:06.563Z,12.53
2018-12-24T00:02:59.011Z,11.23
2018-12-24T00:05:51.191Z,11.67
2018-12-24T00:08:43.373Z,11.13
2018-12-24T00:11:35.813Z,12.90
2018-12-24T00:14:28.071Z,15.40
2018-12-24T00:17:20.264Z,14.53
2018-12-24T00:20:12.455Z,15.50
2018-12-24T00:23:04.653Z,15.40
2018-12-24T00:25:56.836Z,12.67
2018-12-24T00:28:49.043Z,16.73
2018-12-24T00:31:41.243Z,12.97
2018-12-24T00:34:33.419Z,14.70
2018-12-24T00:37:25.616Z,18.53
2018-12-24T00:40:18.320Z,18.93
2018-12-24T00:43:10.525Z,21.53
2018-12-24T00:46:02.700Z,22.60
2018-12-24T00:48:54.886Z,22.17
2018-12-24T00:51:47.068Z,22.07
2018-12-24T00:54:39.260Z,17.20
2018-12-24T00:57:31.452Z,19.93
2018-12-24T01:00:23.652Z,21.27
2018-12-24T01:03:15.860Z,18.53
2018-12-24T01:06:08.033Z,20.33
2018-12-24T01:09:00.235Z,17.73
2018-12-24T01:11:52.404Z,20.33
2018-12-24T01:14:44.610Z,19.23
2018-12-24T01:17:36.791Z,22.00
2018-12-24T01:20:28.980Z,17.83
2018-12-24T01:23:21.439Z,16.27
2018-12-24T01:26:13.625Z,13.40
2018-12-24T01:29:06.145Z,14.77
2018-12-24T01:31:58.688Z,14.50
2018-12-24T01:34:51.144Z,13.07
2018-12-24T01:37:43.320Z,15.13
2018-12-24T01:40:36.011Z,13.70
2018-12-24T01:43:28.201Z,10.90
2018-12-24T01:46:20.410Z,10.40
2018-12-24T01:49:12.600Z,12.40
2018-12-24T01:52:04.805Z,10.53
2018-12-24T01:54:56.986Z,12.67
2018-12-24T01:57:49.177Z,10.00
2018-12-24T02:00:41.380Z,11.27
2018-12-24T02:03:33.560Z,10.23
2018-12-24T02:06:32.688Z,13.63
2018-12-24T02:09:24.863Z,12.00
2018-12-24T02:12:17.151Z,14.13
2018-12-24T02:15:09.340Z,10.10
2018-12-24T02:18:01.532Z,11.10
2018-12-24T02:23:32.716Z,12.83
2018-12-24T02:26:17.837Z,14.10
2018-12-24T02:29:04.020Z,14.77
2018-12-24T02:31:48.692Z,15.90
2018-12-24T02:34:33.411Z,18.40
2018-12-24T02:37:18.345Z,18.50
2018-12-24T02:40:02.893Z,17.17
2018-12-24T02:42:52.211Z,17.00
2018-12-24T02:45:34.199Z,20.60
2018-12-24T02:48:19.097Z,19.50
2018-12-24T02:51:03.820Z,18.93
2018-12-24T02:53:48.713Z,16.80
2018-12-24T02:59:20.993Z,19.60
2018-12-24T03:02:05.824Z,19.30
2018-12-24T03:04:50.641Z,19.67
2018-12-24T03:07:35.485Z,20.03
2018-12-24T03:10:20.329Z,19.27
2018-12-24T03:13:03.581Z,18.43
2018-12-24T03:15:55.765Z,18.90
2018-12-24T03:18:48.201Z,17.47
2018-12-24T03:21:33.060Z,17.83
2018-12-24T03:24:18.016Z,15.43
2018-12-24T03:27:03.088Z,19.00
2018-12-24T03:29:47.990Z,15.40
2018-12-24T03:32:32.708Z,19.47
2018-12-24T03:35:17.304Z,18.23
2018-12-24T03:40:49.554Z,17.03
2018-12-24T03:46:22.176Z,20.93
2018-12-24T03:49:07.083Z,19.30
2018-12-24T03:51:51.935Z,21.37
2018-12-24T03:54:36.975Z,20.37
2018-12-24T03:57:21.940Z,21.07
2018-12-24T04:00:07.031Z,20.00
2018-12-24T04:02:52.041Z,17.20
2018-12-24T04:05:36.776Z,21.57
2018-12-24T04:08:20.082Z,18.23
2018-12-24T04:11:12.260Z,19.63
2018-12-24T04:14:04.702Z,17.03
2018-12-24T04:16:56.892Z,17.87
2018-12-24T04:19:49.077Z,22.13
2018-12-24T04:22:34.215Z,17.63
2018-12-24T04:25:19.097Z,13.27
2018-12-24T04:28:03.728Z,14.97
2018-12-24T04:30:48.745Z,18.43
2018-12-24T04:33:33.920Z,15.27
2018-12-24T04:36:18.637Z,13.90
2018-12-24T04:39:03.357Z,16.37
2018-12-24T04:41:48.080Z,15.93
2018-12-24T04:44:32.681Z,16.60
2018-12-24T04:47:17.489Z,19.87
2018-12-24T04:50:02.257Z,17.80
2018-12-24T04:52:45.497Z,16.77
2018-12-24T04:55:37.688Z,16.30
2018-12-24T04:58:30.062Z,14.73
2018-12-24T05:01:22.328Z,18.40
2018-12-24T05:04:14.776Z,14.67
2018-12-24T05:07:06.956Z,19.53
2018-12-24T05:09:59.160Z,16.27
2018-12-24T05:12:51.351Z,21.03
2018-12-24T05:15:43.556Z,18.17
2018-12-24T05:18:35.739Z,19.13
2018-12-24T05:21:20.517Z,18.47
2018-12-24T05:24:05.415Z,21.17
2018-12-24T05:26:51.239Z,21.63
2018-12-24T05:29:36.253Z,22.63
2018-12-24T05:32:20.960Z,17.53
2018-12-24T05:35:06.114Z,20.63
2018-12-24T05:37:50.725Z,18.63
2018-12-24T05:40:35.526Z,18.93
2018-12-24T05:43:20.130Z,19.10
2018-12-24T05:46:04.688Z,24.47
2018-12-24T05:48:49.659Z,24.97
2018-12-24T05:51:34.578Z,24.93
2018-12-24T05:54:19.186Z,22.67
2018-12-24T05:57:03.953Z,28.37
2018-12-24T05:59:48.593Z,24.60
2018-12-24T06:02:33.279Z,25.80
2018-12-24T06:05:17.953Z,26.40
2018-12-24T06:08:02.979Z,22.67
2018-12-24T06:10:46.174Z,25.43
2018-12-24T06:13:38.371Z,30.33
2018-12-24T06:16:30.552Z,24.43
2018-12-24T06:19:22.748Z,25.23
2018-12-24T06:22:07.812Z,27.80
2018-12-24T06:24:52.292Z,27.27
2018-12-24T06:27:37.933Z,26.77
2018-12-24T06:30:22.801Z,27.53
2018-12-24T06:33:07.466Z,25.80
2018-12-24T06:35:52.049Z,30.80
2018-12-24T06:38:36.883Z,26.87
2018-12-24T06:41:22.175Z,29.03
2018-12-24T06:44:07.168Z,25.13
2018-12-24T06:46:51.987Z,25.97
2018-12-24T06:49:35.303Z,23.53
2018-12-24T06:52:27.475Z,27.23
2018-12-24T06:55:19.693Z,28.20
2018-12-24T06:58:11.869Z,26.43
2018-12-24T07:01:04.081Z,25.30
2018-12-24T07:03:56.263Z,25.23
2018-12-24T07:06:48.457Z,24.17
2018-12-24T07:09:40.661Z,23.27
2018-12-24T07:12:32.824Z,25.63
2018-12-24T07:15:25.279Z,21.57
2018-12-24T07:18:17.487Z,25.20
2018-12-24T07:21:03.544Z,26.93
2018-12-24T07:23:48.894Z,21.80
2018-12-24T07:26:33.676Z,20.73
2018-12-24T07:29:18.720Z,24.57
2018-12-24T07:32:03.681Z,19.17
2018-12-24T07:34:48.940Z,22.60
2018-12-24T07:37:33.513Z,25.37
2018-12-24T07:43:05.482Z,23.60
2018-12-24T07:45:50.219Z,20.00
2018-12-24T07:48:34.776Z,20.77
2018-12-24T07:51:17.980Z,19.70
2018-12-24T07:54:10.166Z,21.23
2018-12-24T07:57:02.360Z,18.97
2018-12-24T07:59:54.556Z,21.23
2018-12-24T08:02:47.006Z,18.23
2018-12-24T08:05:39.194Z,17.00
2018-12-24T08:08:31.387Z,17.93
2018-12-24T08:11:23.556Z,17.07
2018-12-24T08:14:15.753Z,17.83
2018-12-24T08:17:08.192Z,12.70
2018-12-24T08:20:00.380Z,17.03
2018-12-24T08:22:45.347Z,17.00
2018-12-24T08:25:30.445Z,15.03
2018-12-24T08:28:15.332Z,15.30
2018-12-24T08:30:59.908Z,16.43
2018-12-24T08:33:44.775Z,18.03
2018-12-24T08:36:29.623Z,10.47
2018-12-24T08:39:14.477Z,17.30
2018-12-24T08:42:00.164Z,14.13
2018-12-24T08:44:44.910Z,13.77
2018-12-24T08:47:29.977Z,12.50
2018-12-24T08:50:14.600Z,11.10
2018-12-24T08:52:59.626Z,13.90
2018-12-24T08:55:44.389Z,10.87
2018-12-24T08:58:28.876Z,11.87
2018-12-24T09:01:13.461Z,11.50
2018-12-24T09:03:58.497Z,9.73
2018-12-24T09:06:43.365Z,9.20
2018-12-24T09:09:28.122Z,8.53
2018-12-24T09:12:12.865Z,11.85
2018-12-24T09:17:45.270Z,7.53
2018-12-24T09:20:30.380Z,9.70
2018-12-24T09:23:14.964Z,7.73
2018-12-24T09:26:00.089Z,11.30
2018-12-24T09:28:44.675Z,7.40
2018-12-24T09:31:29.677Z,8.37
2018-12-24T09:34:15.249Z,7.43
2018-12-24T09:37:00.232Z,11.07
2018-12-24T09:39:43.490Z,10.13
2018-12-24T09:42:35.696Z,10.17
2018-12-24T09:45:27.899Z,8.87
2018-12-24T09:48:20.082Z,7.07
2018-12-24T09:51:12.528Z,8.40
2018-12-24T09:54:04.719Z,9.87
2018-12-24T09:56:56.905Z,7.67
2018-12-24T09:59:49.083Z,8.83
2018-12-24T10:02:42.724Z,11.23
2018-12-24T10:05:19.215Z,9.73
2018-12-24T10:08:13.463Z,6.77
2018-12-24T10:11:05.652Z,7.40
2018-12-24T10:13:57.867Z,9.57
2018-12-24T10:16:50.036Z,5.43
2018-12-24T10:19:42.229Z,6.93
2018-12-24T10:22:27.609Z,6.40
2018-12-24T10:25:12.248Z,5.23
2018-12-24T10:27:57.088Z,5.73
2018-12-24T10:30:42.270Z,7.00
2018-12-24T10:33:27.120Z,5.20
2018-12-24T10:36:11.894Z,6.60
2018-12-24T10:41:44.140Z,5.50
2018-12-24T10:44:28.696Z,7.20
2018-12-24T10:47:13.272Z,4.60
2018-12-24T10:49:57.776Z,4.73
2018-12-24T10:52:42.267Z,5.27
2018-12-24T10:55:27.363Z,6.70
2018-12-24T10:58:12.816Z,4.60
2018-12-24T11:00:57.840Z,4.97
2018-12-24T11:03:42.736Z,6.27
2018-12-24T11:06:27.306Z,5.87
2018-12-24T11:11:59.808Z,5.23
2018-12-24T11:14:44.888Z,3.20
2018-12-24T11:17:29.873Z,4.10
2018-12-24T11:20:14.611Z,3.20
2018-12-24T11:22:59.390Z,2.80
2018-12-24T11:25:44.436Z,4.00
2018-12-24T11:28:29.312Z,3.17
2018-12-24T11:31:14.476Z,2.90
2018-12-24T11:33:59.200Z,3.37
2018-12-24T11:36:44.376Z,2.47
2018-12-24T11:39:29.896Z,3.83
2018-12-24T11:42:14.657Z,2.67
2018-12-24T11:44:58.004Z,2.40
2018-12-24T11:47:50.197Z,2.57
2018-12-24T11:50:42.384Z,2.40
2018-12-24T11:53:34.587Z,2.93
2018-12-24T11:56:26.789Z,2.43
2018-12-24T11:59:18.979Z,3.83
2018-12-24T12:02:11.164Z,5.03
2018-12-24T12:05:03.399Z,2.23
2018-12-24T12:07:55.575Z,2.57
2018-12-24T12:10:47.775Z,2.30
2018-12-24T12:13:39.956Z,2.40
2018-12-24T12:16:32.152Z,6.73
2018-12-24T12:19:24.360Z,2.47
2018-12-24T12:22:07.669Z,2.40
2018-12-24T12:24:59.909Z,3.73
2018-12-24T12:27:52.081Z,2.90
2018-12-24T12:30:44.271Z,2.57
2018-12-24T12:33:36.466Z,2.63
2018-12-24T12:36:28.664Z,3.07
2018-12-24T12:39:20.845Z,2.60
2018-12-24T12:42:13.027Z,3.47
2018-12-24T12:45:05.258Z,2.37
2018-12-24T12:47:57.566Z,4.93
2018-12-24T12:50:49.831Z,3.40
2018-12-24T12:53:42.024Z,3.07
2018-12-24T12:56:34.256Z,2.83
2018-12-24T12:59:26.427Z,1.97
2018-12-24T13:02:19.032Z,2.53
2018-12-24T13:04:53.671Z,4.53
2018-12-24T13:07:45.863Z,3.73
2018-12-24T13:10:38.041Z,2.27
2018-12-24T13:13:36.690Z,2.57
2018-12-24T13:16:24.183Z,4.90
2018-12-24T13:19:16.352Z,2.60
2018-12-24T13:22:04.450Z,3.93
2018-12-24T13:24:46.016Z,3.47
2018-12-24T13:27:38.209Z,3.20
2018-12-24T13:30:30.383Z,4.27
2018-12-24T13:33:22.580Z,3.90
2018-12-24T13:36:14.786Z,3.63
2018-12-24T13:39:07.008Z,3.53
2018-12-24T13:41:59.234Z,2.73
2018-12-24T13:44:51.412Z,2.67
2018-12-24T13:47:43.627Z,3.70
2018-12-24T13:50:35.808Z,2.73
2018-12-24T13:53:27.999Z,2.80
2018-12-24T13:56:20.168Z,4.10
2018-12-24T13:59:12.368Z,5.73
2018-12-24T14:02:04.604Z,3.60
2018-12-24T14:04:56.780Z,3.17
2018-12-24T14:07:48.967Z,3.67
2018-12-24T14:10:41.140Z,7.00
2018-12-24T14:13:33.332Z,4.07
2018-12-24T14:16:25.515Z,5.77
2018-12-24T14:19:17.698Z,5.23
2018-12-24T14:22:03.169Z,5.57
2018-12-24T14:24:48.045Z,5.73
2018-12-24T14:27:33.099Z,3.40
2018-12-24T14:30:18.152Z,4.47
2018-12-24T14:33:02.850Z,4.03
2018-12-24T14:35:48.005Z,4.60
2018-12-24T14:38:33.784Z,5.13
2018-12-24T14:41:18.404Z,4.23
2018-12-24T14:44:04.000Z,4.80
2018-12-24T14:46:48.565Z,5.43
2018-12-24T14:49:33.443Z,3.53
2018-12-24T14:52:18.291Z,3.80
2018-12-24T14:55:03.483Z,4.20
2018-12-24T15:00:35.553Z,6.83
2018-12-24T15:03:20.233Z,5.53
2018-12-24T15:06:04.789Z,6.77
2018-12-24T15:08:49.649Z,5.70
2018-12-24T15:11:35.363Z,6.47
2018-12-24T15:14:20.072Z,5.17
2018-12-24T15:17:04.596Z,6.27
2018-12-24T15:19:49.391Z,6.00
2018-12-24T15:22:34.204Z,6.23
2018-12-24T15:25:18.994Z,5.03
2018-12-24T15:28:04.296Z,8.13
2018-12-24T15:30:49.375Z,5.47
2018-12-24T15:33:34.166Z,6.47
2018-12-24T15:36:18.889Z,7.90
2018-12-24T15:39:04.027Z,6.93
2018-12-24T15:41:47.324Z,7.03
2018-12-24T15:44:39.509Z,8.10
2018-12-24T15:47:31.724Z,7.73
2018-12-24T15:50:23.896Z,10.67
2018-12-24T15:53:16.098Z,12.57
2018-12-24T15:56:08.327Z,8.03
2018-12-24T15:59:00.488Z,6.93
2018-12-24T16:01:52.685Z,8.13
2018-12-24T16:04:44.863Z,8.53
2018-12-24T16:07:37.056Z,6.77
2018-12-24T16:10:29.238Z,6.73
2018-12-24T16:13:21.700Z,6.43
2018-12-24T16:16:13.885Z,8.60
2018-12-24T16:19:06.065Z,8.87
2018-12-24T16:21:50.913Z,6.67
2018-12-24T16:27:22.298Z,5.97
2018-12-24T16:30:07.175Z,7.33
2018-12-24T16:32:51.899Z,6.50
2018-12-24T16:35:36.670Z,6.53
2018-12-24T16:38:22.026Z,6.97
2018-12-24T16:41:06.907Z,7.13
2018-12-24T16:43:51.464Z,8.37
2018-12-24T16:46:36.887Z,8.23
2018-12-24T16:49:21.809Z,6.03
2018-12-24T16:52:06.686Z,6.60
2018-12-24T16:54:51.659Z,8.40
2018-12-24T16:57:36.359Z,11.10
2018-12-24T17:00:21.159Z,9.27
2018-12-24T17:03:05.796Z,9.67
2018-12-24T17:05:52.028Z,8.97
2018-12-24T17:08:36.668Z,6.47
2018-12-24T17:11:22.113Z,8.87
2018-12-24T17:14:07.561Z,8.60
2018-12-24T17:16:52.428Z,9.07
2018-12-24T17:19:37.476Z,8.40
2018-12-24T17:22:22.895Z,7.90
2018-12-24T17:25:08.277Z,8.67
2018-12-24T17:27:52.806Z,6.73
2018-12-24T17:30:37.484Z,9.23
2018-12-24T17:33:22.432Z,10.50
2018-12-24T17:36:06.952Z,10.30
2018-12-24T17:38:51.809Z,10.70
2018-12-24T17:41:36.808Z,9.40
2018-12-24T17:44:21.368Z,10.47
2018-12-24T17:47:06.510Z,9.67
2018-12-24T17:49:51.952Z,11.10
2018-12-24T17:52:36.756Z,10.87
2018-12-24T17:55:21.369Z,11.60
2018-12-24T17:58:05.943Z,8.00
2018-12-24T18:00:50.744Z,9.00
2018-12-24T18:03:35.268Z,11.03
2018-12-24T18:06:19.822Z,10.17
2018-12-24T18:09:04.664Z,10.87
2018-12-24T18:11:49.455Z,10.87
2018-12-24T18:17:24.853Z,12.40
2018-12-24T18:20:08.500Z,12.17
2018-12-24T18:22:53.625Z,11.30
2018-12-24T18:25:38.147Z,11.43
2018-12-24T18:28:22.904Z,15.60
2018-12-24T18:31:07.903Z,15.93
2018-12-24T18:33:52.624Z,16.37
2018-12-24T18:36:37.645Z,16.73
2018-12-24T18:39:22.504Z,17.80
2018-12-24T18:42:08.011Z,20.23
2018-12-24T18:44:52.694Z,20.83
2018-12-24T18:47:37.329Z,20.30
2018-12-24T18:50:22.145Z,26.13
2018-12-24T18:53:07.143Z,20.13
2018-12-24T18:55:51.812Z,23.50
2018-12-24T18:58:36.500Z,24.77
2018-12-24T19:01:21.485Z,27.03
2018-12-24T19:04:06.836Z,25.80
2018-12-24T19:06:51.572Z,21.50
2018-12-24T19:09:37.460Z,27.10
2018-12-24T19:12:22.347Z,23.30
2018-12-24T19:15:07.200Z,22.93
2018-12-24T19:17:52.068Z,28.07
2018-12-24T19:20:35.355Z,23.40
2018-12-24T19:23:20.056Z,21.07
2018-12-24T19:26:04.506Z,20.77
2018-12-24T19:28:49.300Z,26.87
2018-12-24T19:34:21.297Z,22.57
2018-12-24T19:37:06.218Z,21.13
2018-12-24T19:39:51.152Z,19.20
2018-12-24T19:42:36.095Z,21.07
2018-12-24T19:45:20.807Z,30.10
2018-12-24T19:48:05.787Z,27.43
2018-12-24T19:50:49.016Z,23.00
2018-12-24T19:53:41.196Z,22.03
2018-12-24T19:56:33.396Z,24.00
2018-12-24T19:59:25.712Z,20.77
2018-12-24T20:02:17.907Z,23.50
2018-12-24T20:04:51.415Z,25.37
2018-12-24T20:07:43.612Z,27.57
2018-12-24T20:10:35.826Z,24.20
2018-12-24T20:13:28.002Z,22.57
2018-12-24T20:16:20.212Z,24.47
2018-12-24T20:19:12.405Z,23.83
2018-12-24T20:21:57.772Z,22.30
2018-12-24T20:24:42.619Z,22.40
2018-12-24T20:27:15.619Z,22.27
2018-12-24T20:30:07.808Z,20.83
2018-12-24T20:32:59.995Z,22.57
2018-12-24T20:35:52.284Z,24.63
2018-12-24T20:38:44.480Z,27.73
2018-12-24T20:41:36.664Z,20.53
2018-12-24T20:47:40.338Z,21.60
2018-12-24T20:50:32.521Z,26.23
2018-12-24T20:53:24.711Z,23.50
2018-12-24T20:56:16.880Z,23.57
2018-12-24T20:59:09.070Z,24.20
2018-12-24T21:02:01.355Z,23.20
2018-12-24T21:04:53.552Z,19.93
2018-12-24T21:07:45.739Z,27.17
2018-12-24T21:10:37.915Z,21.37
2018-12-24T21:13:30.099Z,22.47
2018-12-24T21:16:22.277Z,24.80
2018-12-24T21:19:14.468Z,24.17
2018-12-24T21:21:58.948Z,19.43
2018-12-24T21:24:44.420Z,20.97
2018-12-24T21:27:29.865Z,19.73
2018-12-24T21:30:13.106Z,19.90
2018-12-24T21:33:05.293Z,24.57
2018-12-24T21:35:57.480Z,21.77
2018-12-24T21:38:49.672Z,20.53
2018-12-24T21:41:41.901Z,20.93
2018-12-24T21:44:34.104Z,21.27
2018-12-24T21:47:26.284Z,20.20
2018-12-24T21:50:18.568Z,20.20
2018-12-24T21:53:10.747Z,19.40
2018-12-24T21:56:02.938Z,19.07
2018-12-24T21:58:55.114Z,21.63
2018-12-24T22:01:47.548Z,19.90
2018-12-24T22:04:39.736Z,20.10
2018-12-24T22:07:31.932Z,19.70
2018-12-24T22:10:24.141Z,19.37
2018-12-24T22:13:16.322Z,21.80
2018-12-24T22:16:08.520Z,22.33
2018-12-24T22:19:00.699Z,20.83
2018-12-24T22:21:45.564Z,19.47
2018-12-24T22:24:30.638Z,24.57
2018-12-24T22:27:15.507Z,20.47
2018-12-24T22:30:00.264Z,20.70
2018-12-24T22:32:45.004Z,17.53
2018-12-24T22:35:29.737Z,17.93
2018-12-24T22:38:13.231Z,21.90
2018-12-24T22:41:05.415Z,19.07
2018-12-24T22:43:57.608Z,20.13
2018-12-24T22:46:49.801Z,16.03
2018-12-24T22:49:42.284Z,19.40
2018-12-24T22:52:34.468Z,18.50
2018-12-24T22:55:26.663Z,16.97
2018-12-24T22:58:18.856Z,17.73
2018-12-24T23:01:11.047Z,17.97
2018-12-24T23:04:03.227Z,17.53
2018-12-24T23:06:55.415Z,18.87
2018-12-24T23:09:47.598Z,18.47
2018-12-24T23:12:39.784Z,20.13
2018-12-24T23:15:31.975Z,14.40
2018-12-24T23:18:24.175Z,20.07
2018-12-24T23:21:16.362Z,16.03
2018-12-24T23:24:01.604Z,15.53
2018-12-24T23:26:46.524Z,16.43
2018-12-24T23:29:31.491Z,15.03
2018-12-24T23:32:16.341Z,16.27
2018-12-24T23:35:01.722Z,15.33
2018-12-24T23:37:47.012Z,15.13
2018-12-24T23:40:32.110Z,14.80
2018-12-24T23:46:05.199Z,15.60
2018-12-24T23:48:57.499Z,17.50
2018-12-24T23:51:36.122Z,16.50
2018-12-24T23:54:20.895Z,14.87
2018-12-24T23:57:05.678Z,16.40
2018-12-24T23:59:50.667Z,15.37
